createdAt,value
2017-12-14T00:00:06.817Z,13.4
2017-12-14T00:01:09.327Z,13.3
2017-12-14T00:02:11.863Z,13.5
2017-12-14T00:03:14.328Z,13.8
2017-12-14T00:04:16.894Z,13.8
2017-12-14T00:05:19.391Z,13.6
2017-12-14T00:06:21.810Z,13.4
2017-12-14T00:07:24.183Z,13.2
2017-12-14T00:08:26.616Z,13.3
2017-12-14T00:09:29.115Z,13.1
2017-12-14T00:10:31.513Z,13.1
2017-12-14T00:11:33.935Z,13.1
2017-12-14T00:12:36.403Z,13.1
2017-12-14T00:13:38.805Z,13
2017-12-14T00:14:41.158Z,12.9
2017-12-14T00:15:43.635Z,13.1
2017-12-14T00:16:46.335Z,12.9
2017-12-14T00:17:48.852Z,13
2017-12-14T00:18:51.341Z,13.1
2017-12-14T00:19:53.840Z,13.2
2017-12-14T00:20:56.272Z,12.8
2017-12-14T00:21:58.707Z,12.7
2017-12-14T00:23:01.185Z,12.7
2017-12-14T00:24:03.624Z,12.7
2017-12-14T00:25:06.068Z,12.8
2017-12-14T00:26:08.525Z,12.7
2017-12-14T00:27:10.965Z,12.7
2017-12-14T00:28:13.471Z,12.6
2017-12-14T00:29:15.967Z,12.6
2017-12-14T00:30:18.532Z,12.7
2017-12-14T00:31:20.914Z,12.6
2017-12-14T00:32:23.318Z,12.6
2017-12-14T00:33:25.786Z,12.6
2017-12-14T00:34:28.255Z,12.6
2017-12-14T00:35:30.824Z,12.5
2017-12-14T00:36:33.254Z,12.6
2017-12-14T00:37:35.734Z,12.5
2017-12-14T00:38:38.236Z,12.4
2017-12-14T00:39:40.622Z,12.6
2017-12-14T00:40:43.008Z,12.6
2017-12-14T00:41:45.424Z,12.6
2017-12-14T00:42:47.923Z,12.4
2017-12-14T00:43:50.433Z,12.4
2017-12-14T00:44:52.903Z,12.6
2017-12-14T00:45:55.365Z,12.5
2017-12-14T00:46:57.864Z,12.5
2017-12-14T00:48:00.318Z,12.4
2017-12-14T00:49:02.842Z,12.1
2017-12-14T00:50:05.280Z,12.1
2017-12-14T00:51:07.795Z,11.9
2017-12-14T00:52:10.333Z,12
2017-12-14T00:53:12.838Z,12.2
2017-12-14T00:54:15.326Z,11.9
2017-12-14T00:55:17.716Z,11.9
2017-12-14T00:56:20.135Z,11.8
2017-12-14T00:57:22.553Z,11.8
2017-12-14T00:58:25.020Z,12.1
2017-12-14T00:59:27.585Z,12.1
2017-12-14T01:00:30.030Z,12.1
2017-12-14T01:01:32.488Z,12
2017-12-14T01:02:34.860Z,12
2017-12-14T01:03:37.289Z,11.9
2017-12-14T01:04:39.764Z,11.6
2017-12-14T01:05:42.162Z,11.8
2017-12-14T01:06:44.556Z,11.7
2017-12-14T01:07:46.992Z,11.6
2017-12-14T01:08:49.472Z,11.7
2017-12-14T01:09:51.880Z,11.8
2017-12-14T01:10:54.337Z,11.7
2017-12-14T01:11:56.839Z,11.7
2017-12-14T01:12:59.343Z,11.5
2017-12-14T01:14:01.736Z,11.5
2017-12-14T01:15:04.216Z,11.6
2017-12-14T01:16:06.659Z,11.7
2017-12-14T01:17:09.113Z,11.8
2017-12-14T01:18:11.594Z,11.8
2017-12-14T01:19:14.022Z,11.7
2017-12-14T01:20:16.794Z,11.5
2017-12-14T01:21:19.244Z,11.5
2017-12-14T01:22:21.715Z,11.6
2017-12-14T01:23:24.168Z,11.5
2017-12-14T01:24:26.650Z,11.6
2017-12-14T01:25:29.009Z,11.5
2017-12-14T01:26:31.423Z,11.2
2017-12-14T01:27:33.934Z,11.5
2017-12-14T01:28:36.326Z,11.5
2017-12-14T01:29:38.731Z,11.4
2017-12-14T01:30:41.176Z,11.4
2017-12-14T01:31:43.534Z,11.4
2017-12-14T01:32:45.988Z,11.4
2017-12-14T01:33:48.514Z,11.4
2017-12-14T01:34:50.926Z,11.2
2017-12-14T01:35:53.357Z,11.2
2017-12-14T01:36:55.787Z,11.3
2017-12-14T01:37:58.202Z,11.3
2017-12-14T01:39:00.719Z,11.4
2017-12-14T01:40:03.194Z,11.1
2017-12-14T01:41:05.758Z,11.1
2017-12-14T01:42:08.174Z,11
2017-12-14T01:43:10.645Z,11.1
2017-12-14T01:44:13.156Z,11
2017-12-14T01:45:15.519Z,10.9
2017-12-14T01:46:18.428Z,11.1
2017-12-14T01:47:21.161Z,11.1
2017-12-14T01:48:23.530Z,10.9
2017-12-14T01:49:25.991Z,10.9
2017-12-14T01:50:28.586Z,11.1
2017-12-14T01:51:31.014Z,11
2017-12-14T01:52:33.396Z,11
2017-12-14T01:53:35.956Z,10.8
2017-12-14T01:54:38.455Z,11
2017-12-14T01:55:40.947Z,11.1
2017-12-14T01:56:43.409Z,11.1
2017-12-14T01:57:45.928Z,10.8
2017-12-14T01:58:48.501Z,10.9
2017-12-14T01:59:51.028Z,10.9
2017-12-14T02:00:53.480Z,11
2017-12-14T02:01:56.112Z,10.7
2017-12-14T02:02:58.751Z,10.6
2017-12-14T02:04:01.409Z,10.8
2017-12-14T02:05:03.948Z,10.8
2017-12-14T02:06:06.436Z,10.9
2017-12-14T02:07:09.117Z,10.5
2017-12-14T02:08:11.516Z,10.8
2017-12-14T02:09:14.007Z,10.7
2017-12-14T02:10:16.526Z,10.8
2017-12-14T02:11:19.302Z,10.9
2017-12-14T02:12:22.139Z,10.9
2017-12-14T02:13:24.607Z,10.8
2017-12-14T02:14:27.137Z,10.8
2017-12-14T02:15:29.755Z,10.8
2017-12-14T02:16:32.318Z,10.7
2017-12-14T02:17:34.769Z,10.8
2017-12-14T02:18:37.240Z,10.8
2017-12-14T02:19:39.738Z,10.8
2017-12-14T02:20:42.197Z,11
2017-12-14T02:21:44.681Z,10.8
2017-12-14T02:22:47.145Z,10.9
2017-12-14T02:23:49.575Z,10.9
2017-12-14T02:24:52.021Z,11.1
2017-12-14T02:25:54.427Z,11
2017-12-14T02:26:56.826Z,10.7
2017-12-14T02:27:59.297Z,10.6
2017-12-14T02:29:01.929Z,10.6
2017-12-14T02:30:04.337Z,10.5
2017-12-14T02:31:06.825Z,10.6
2017-12-14T02:32:09.267Z,10.8
2017-12-14T02:33:11.785Z,10.7
2017-12-14T02:34:14.285Z,10.8
2017-12-14T02:35:16.841Z,10.7
2017-12-14T02:36:19.279Z,10.6
2017-12-14T02:37:21.706Z,10.6
2017-12-14T02:38:24.230Z,10.6
2017-12-14T02:39:26.736Z,10.4
2017-12-14T02:40:29.243Z,10.4
2017-12-14T02:41:31.837Z,10.4
2017-12-14T02:42:34.380Z,10.4
2017-12-14T02:43:36.887Z,10.6
2017-12-14T02:44:39.365Z,10.6
2017-12-14T02:45:41.931Z,10.7
2017-12-14T02:46:44.414Z,10.5
2017-12-14T02:47:46.824Z,10.5
2017-12-14T02:48:49.288Z,10.4
2017-12-14T02:49:51.778Z,10.4
2017-12-14T02:50:54.308Z,10.1
2017-12-14T02:51:56.802Z,10.2
2017-12-14T02:52:59.288Z,10.4
2017-12-14T02:54:02.223Z,10.6
2017-12-14T02:55:04.719Z,10.4
2017-12-14T02:56:07.250Z,10.2
2017-12-14T02:57:09.762Z,10.4
2017-12-14T02:58:12.219Z,10.2
2017-12-14T02:59:14.728Z,10.1
2017-12-14T03:00:17.185Z,10.3
2017-12-14T03:01:19.636Z,10.1
2017-12-14T03:02:22.098Z,10.2
2017-12-14T03:03:24.579Z,10.1
2017-12-14T03:04:27.060Z,10.2
2017-12-14T03:05:29.534Z,10.4
2017-12-14T03:06:31.945Z,10.2
2017-12-14T03:07:34.383Z,10.1
2017-12-14T03:08:36.823Z,10.2
2017-12-14T03:09:39.356Z,10.4
2017-12-14T03:10:41.978Z,10.4
2017-12-14T03:11:44.439Z,10.4
2017-12-14T03:12:46.895Z,10.4
2017-12-14T03:13:49.386Z,10.2
2017-12-14T03:14:51.868Z,10.3
2017-12-14T03:15:54.480Z,10.4
2017-12-14T03:16:56.914Z,10.3
2017-12-14T03:17:59.341Z,10.1
2017-12-14T03:19:01.785Z,10.2
2017-12-14T03:20:04.224Z,10.3
2017-12-14T03:21:06.782Z,10.2
2017-12-14T03:22:09.351Z,9.9
2017-12-14T03:23:11.895Z,10
2017-12-14T03:24:14.297Z,10.3
2017-12-14T03:25:16.907Z,10.2
2017-12-14T03:26:19.376Z,10.2
2017-12-14T03:27:21.861Z,10.3
2017-12-14T03:28:24.445Z,10.3
2017-12-14T03:29:26.933Z,10.1
2017-12-14T03:30:29.423Z,9.9
2017-12-14T03:31:32.001Z,9.7
2017-12-14T03:32:34.487Z,9.9
2017-12-14T03:33:37.014Z,9.8
2017-12-14T03:34:39.584Z,9.8
2017-12-14T03:35:42.064Z,9.9
2017-12-14T03:36:44.741Z,9.9
2017-12-14T03:37:47.313Z,10
2017-12-14T03:38:49.813Z,9.9
2017-12-14T03:39:52.307Z,9.7
2017-12-14T03:40:54.780Z,10
2017-12-14T03:41:57.257Z,9.9
2017-12-14T03:42:59.704Z,10
2017-12-14T03:44:02.224Z,10
2017-12-14T03:45:04.739Z,10.1
2017-12-14T03:46:07.220Z,10.1
2017-12-14T03:47:09.777Z,10.1
2017-12-14T03:48:12.217Z,10.1
2017-12-14T03:49:14.746Z,10.1
2017-12-14T03:50:17.262Z,9.8
2017-12-14T03:51:19.946Z,9.6
2017-12-14T03:52:22.486Z,9.9
2017-12-14T03:53:25.047Z,10.1
2017-12-14T03:54:27.486Z,9.8
2017-12-14T03:55:30.090Z,10
2017-12-14T03:56:32.752Z,10.1
2017-12-14T03:57:35.162Z,10.1
2017-12-14T03:58:37.611Z,10
2017-12-14T03:59:43.301Z,9.9
2017-12-14T04:00:46.059Z,10
2017-12-14T04:01:48.671Z,9.9
2017-12-14T04:02:51.303Z,9.8
2017-12-14T04:03:53.779Z,9.9
2017-12-14T04:04:56.212Z,10
2017-12-14T04:05:58.636Z,9.8
2017-12-14T04:07:01.167Z,9.9
2017-12-14T04:08:03.670Z,9.9
2017-12-14T04:09:06.076Z,9.8
2017-12-14T04:10:08.625Z,10
2017-12-14T04:11:11.239Z,9.8
2017-12-14T04:12:13.817Z,9.7
2017-12-14T04:13:16.259Z,9.8
2017-12-14T04:14:18.787Z,9.6
2017-12-14T04:15:21.335Z,10
2017-12-14T04:16:23.920Z,9.9
2017-12-14T04:17:26.861Z,9.9
2017-12-14T04:18:29.764Z,9.7
2017-12-14T04:19:32.347Z,9.7
2017-12-14T04:20:34.877Z,9.7
2017-12-14T04:21:37.392Z,9.6
2017-12-14T04:22:39.896Z,9.4
2017-12-14T04:23:42.456Z,9.4
2017-12-14T04:24:45.030Z,9.4
2017-12-14T04:25:47.875Z,9.6
2017-12-14T04:26:50.946Z,9.6
2017-12-14T04:27:53.449Z,9.6
2017-12-14T04:28:56.099Z,9.7
2017-12-14T04:29:58.590Z,9.5
2017-12-14T04:31:01.063Z,9.5
2017-12-14T04:32:03.522Z,9.2
2017-12-14T04:33:06.110Z,9.6
2017-12-14T04:34:08.647Z,9.6
2017-12-14T04:35:11.180Z,9.5
2017-12-14T04:36:14.139Z,9.4
2017-12-14T04:37:16.614Z,9.5
2017-12-14T04:38:19.164Z,9.3
2017-12-14T04:39:21.649Z,9.3
2017-12-14T04:40:24.128Z,9.5
2017-12-14T04:41:26.569Z,9.6
2017-12-14T04:42:29.101Z,9.6
2017-12-14T04:43:31.652Z,9.6
2017-12-14T04:44:34.078Z,9.5
2017-12-14T04:45:36.500Z,9.4
2017-12-14T04:46:39.014Z,9.3
2017-12-14T04:47:41.383Z,9.4
2017-12-14T04:48:44.174Z,9.4
2017-12-14T04:49:46.714Z,9.7
2017-12-14T04:50:49.174Z,9.5
2017-12-14T04:51:51.588Z,9.6
2017-12-14T04:52:54.425Z,9.4
2017-12-14T04:53:57.107Z,9.2
2017-12-14T04:54:59.621Z,9.1
2017-12-14T04:56:02.242Z,9.2
2017-12-14T04:57:04.793Z,9.4
2017-12-14T04:58:07.311Z,9.4
2017-12-14T04:59:09.913Z,9.3
2017-12-14T05:00:12.512Z,9.2
2017-12-14T05:01:14.952Z,9
2017-12-14T05:02:17.406Z,9.2
2017-12-14T05:03:19.872Z,9.1
2017-12-14T05:04:22.370Z,9
2017-12-14T05:05:24.811Z,9
2017-12-14T05:06:27.367Z,9
2017-12-14T05:07:29.977Z,9.1
2017-12-14T05:08:32.436Z,8.9
2017-12-14T05:09:34.858Z,9.1
2017-12-14T05:10:37.336Z,9.1
2017-12-14T05:11:39.888Z,9
2017-12-14T05:12:42.438Z,9.1
2017-12-14T05:13:44.950Z,9
2017-12-14T05:14:47.691Z,8.8
2017-12-14T05:15:50.472Z,8.8
2017-12-14T05:16:53.113Z,8.9
2017-12-14T05:17:55.726Z,8.9
2017-12-14T05:18:58.178Z,9
2017-12-14T05:20:00.935Z,9
2017-12-14T05:21:03.470Z,9
2017-12-14T05:22:05.869Z,9.1
2017-12-14T05:23:08.292Z,8.9
2017-12-14T05:24:10.870Z,8.9
2017-12-14T05:25:13.294Z,9.4
2017-12-14T05:26:15.789Z,9.5
2017-12-14T05:27:18.231Z,9.3
2017-12-14T05:28:20.817Z,9.3
2017-12-14T05:29:23.195Z,9.4
2017-12-14T05:30:25.659Z,9.2
2017-12-14T05:31:28.257Z,9.3
2017-12-14T05:32:30.813Z,9
2017-12-14T05:33:33.288Z,8.9
2017-12-14T05:34:35.754Z,9.1
2017-12-14T05:35:38.186Z,9
2017-12-14T05:36:44.870Z,9.1
2017-12-14T05:37:47.421Z,9
2017-12-14T05:38:49.978Z,8.9
2017-12-14T05:39:52.419Z,8.9
2017-12-14T05:40:54.983Z,8.9
2017-12-14T05:41:57.368Z,9
2017-12-14T05:42:59.838Z,9.1
2017-12-14T05:44:02.339Z,9.1
2017-12-14T05:45:04.878Z,9.3
2017-12-14T05:46:08.935Z,9.1
2017-12-14T05:47:11.530Z,9.3
2017-12-14T05:48:14.098Z,9.3
2017-12-14T05:49:16.711Z,9.3
2017-12-14T05:50:19.219Z,9.2
2017-12-14T05:51:22.078Z,9
2017-12-14T05:52:24.478Z,9.4
2017-12-14T05:53:26.956Z,9.5
2017-12-14T05:54:29.514Z,9.5
2017-12-14T05:55:32.040Z,9.5
2017-12-14T05:56:34.518Z,9.5
2017-12-14T05:57:37.016Z,9.6
2017-12-14T05:58:39.902Z,9.3
2017-12-14T05:59:42.422Z,9.5
2017-12-14T06:00:45.008Z,9.3
2017-12-14T06:01:48.197Z,9.7
2017-12-14T06:02:52.833Z,9.4
2017-12-14T06:03:55.592Z,9.4
2017-12-14T06:04:58.237Z,9.3
2017-12-14T06:06:02.360Z,9.1
2017-12-14T06:07:05.293Z,9
2017-12-14T06:08:12.056Z,8.8
2017-12-14T06:09:15.056Z,8.8
2017-12-14T06:10:18.071Z,8.9
2017-12-14T06:11:20.923Z,8.7
2017-12-14T06:12:23.810Z,8.4
2017-12-14T06:13:26.688Z,8.4
2017-12-14T06:14:29.540Z,8.2
2017-12-14T06:15:32.238Z,8.3
2017-12-14T06:16:34.941Z,8.4
2017-12-14T06:17:37.981Z,8.5
2017-12-14T06:18:40.792Z,8.5
2017-12-14T06:19:43.465Z,8.9
2017-12-14T06:20:46.291Z,8.8
2017-12-14T06:21:49.192Z,9.2
2017-12-14T06:22:52.431Z,9.2
2017-12-14T06:23:55.220Z,9
2017-12-14T06:24:57.962Z,8.4
2017-12-14T06:26:00.743Z,8.4
2017-12-14T06:27:03.587Z,8.4
2017-12-14T06:28:09.160Z,8.4
2017-12-14T06:29:12.835Z,8.4
2017-12-14T06:30:15.322Z,8.3
2017-12-14T06:31:17.791Z,8.4
2017-12-14T06:32:20.259Z,8.2
2017-12-14T06:33:22.839Z,8
2017-12-14T06:34:25.404Z,8
2017-12-14T06:35:27.952Z,8
2017-12-14T06:36:30.618Z,8.1
2017-12-14T06:37:33.116Z,8.2
2017-12-14T06:38:35.634Z,8.2
2017-12-14T06:39:38.195Z,7.9
2017-12-14T06:40:40.798Z,7.9
2017-12-14T06:41:43.608Z,7.9
2017-12-14T06:42:47.344Z,7.8
2017-12-14T06:43:49.905Z,7.9
2017-12-14T06:44:52.480Z,7.9
2017-12-14T06:45:54.990Z,8.1
2017-12-14T06:46:57.449Z,8.3
2017-12-14T06:47:59.922Z,8.2
2017-12-14T06:49:02.486Z,8.4
2017-12-14T06:50:05.037Z,8.4
2017-12-14T06:51:07.588Z,8.4
2017-12-14T06:52:10.221Z,8.3
2017-12-14T06:53:12.966Z,8.2
2017-12-14T06:54:15.748Z,8.2
2017-12-14T06:55:18.252Z,8.2
2017-12-14T06:56:20.904Z,8.4
2017-12-14T06:57:23.575Z,8.4
2017-12-14T06:58:26.342Z,8.5
2017-12-14T06:59:29.192Z,8.5
2017-12-14T07:00:32.748Z,8.2
2017-12-14T07:01:35.314Z,8.5
2017-12-14T07:02:37.821Z,9.4
2017-12-14T07:03:40.307Z,10.4
2017-12-14T07:04:42.799Z,11.3
2017-12-14T07:05:45.281Z,11.6
2017-12-14T07:06:47.776Z,12.5
2017-12-14T07:07:50.360Z,12.6
2017-12-14T07:08:52.810Z,12.4
2017-12-14T07:09:55.326Z,12.6
2017-12-14T07:10:57.810Z,12.8
2017-12-14T07:12:00.421Z,12.9
2017-12-14T07:13:02.929Z,13.1
2017-12-14T07:14:05.326Z,13.3
2017-12-14T07:15:07.780Z,13.3
2017-12-14T07:16:10.365Z,13.4
2017-12-14T07:17:12.954Z,13.8
2017-12-14T07:18:15.603Z,13.7
2017-12-14T07:19:18.047Z,14.2
2017-12-14T07:20:20.532Z,14.5
2017-12-14T07:21:22.980Z,14.8
2017-12-14T07:22:25.548Z,14.9
2017-12-14T07:23:28.010Z,15
2017-12-14T07:24:30.490Z,15
2017-12-14T07:25:32.982Z,15
2017-12-14T07:26:35.570Z,14.9
2017-12-14T07:27:38.942Z,15
2017-12-14T07:28:41.606Z,14.9
2017-12-14T07:29:44.303Z,14.9
2017-12-14T07:30:46.815Z,15.1
2017-12-14T07:31:49.376Z,14.9
2017-12-14T07:32:52.935Z,14.9
2017-12-14T07:33:56.015Z,14.9
2017-12-14T07:34:58.484Z,15
2017-12-14T07:36:01.090Z,15
2017-12-14T07:37:03.690Z,15.3
2017-12-14T07:38:07.087Z,15.6
2017-12-14T07:39:09.631Z,15.8
2017-12-14T07:40:12.765Z,15.9
2017-12-14T07:41:15.340Z,15.9
2017-12-14T07:42:17.874Z,15.9
2017-12-14T07:43:20.738Z,16.3
2017-12-14T07:44:23.251Z,16.3
2017-12-14T07:45:25.765Z,16.4
2017-12-14T07:46:29.459Z,16.8
2017-12-14T07:47:34.195Z,16.9
2017-12-14T07:48:37.020Z,17
2017-12-14T07:49:42.445Z,17
2017-12-14T07:50:45.294Z,17.2
2017-12-14T07:51:47.966Z,17.2
2017-12-14T07:52:50.786Z,17.5
2017-12-14T07:53:53.356Z,17.4
2017-12-14T07:54:56.004Z,17.5
2017-12-14T07:55:58.595Z,17.4
2017-12-14T07:57:01.366Z,17.4
2017-12-14T07:58:03.931Z,17.3
2017-12-14T07:59:06.436Z,17.4
2017-12-14T08:00:08.986Z,17.7
2017-12-14T08:01:11.632Z,17.6
2017-12-14T08:02:14.279Z,17.8
2017-12-14T08:03:16.803Z,18.1
2017-12-14T08:04:19.511Z,18
2017-12-14T08:05:21.995Z,18.1
2017-12-14T08:06:24.553Z,18.1
2017-12-14T08:07:27.234Z,18
2017-12-14T08:08:29.800Z,18.1
2017-12-14T08:09:32.453Z,18.2
2017-12-14T08:10:34.941Z,18.3
2017-12-14T08:11:37.450Z,18.1
2017-12-14T08:12:40.134Z,18.2
2017-12-14T08:13:43.493Z,17.9
2017-12-14T08:14:50.321Z,18.1
2017-12-14T08:15:52.946Z,17.9
2017-12-14T08:16:55.530Z,17.8
2017-12-14T08:17:58.463Z,17.6
2017-12-14T08:19:01.144Z,17.5
2017-12-14T08:20:04.038Z,17.5
2017-12-14T08:21:06.887Z,17.5
2017-12-14T08:22:09.538Z,17.2
2017-12-14T08:23:12.068Z,17
2017-12-14T08:24:14.588Z,17.2
2017-12-14T08:25:17.170Z,17.1
2017-12-14T08:26:20.758Z,17
2017-12-14T08:27:23.355Z,17.1
2017-12-14T08:28:25.822Z,17.2
2017-12-14T08:29:28.357Z,16.9
2017-12-14T08:30:30.926Z,16.9
2017-12-14T08:31:33.464Z,16.7
2017-12-14T08:32:36.214Z,16.8
2017-12-14T08:33:38.904Z,16.8
2017-12-14T08:34:41.763Z,16.6
2017-12-14T08:35:44.197Z,16.6
2017-12-14T08:36:46.749Z,16.6
2017-12-14T08:37:49.310Z,16.6
2017-12-14T08:38:53.124Z,16.5
2017-12-14T08:39:55.935Z,16.5
2017-12-14T08:40:58.488Z,16.5
2017-12-14T08:42:01.175Z,16.5
2017-12-14T08:43:03.769Z,16.5
2017-12-14T08:44:06.399Z,16.5
2017-12-14T08:45:09.015Z,16.4
2017-12-14T08:46:11.871Z,16.4
2017-12-14T08:47:14.581Z,16.5
2017-12-14T08:48:17.364Z,16.5
2017-12-14T08:49:19.927Z,16.4
2017-12-14T08:50:22.504Z,16.4
2017-12-14T08:51:25.194Z,16.4
2017-12-14T08:52:28.039Z,16.4
2017-12-14T08:53:30.952Z,16.3
2017-12-14T08:54:33.768Z,16.1
2017-12-14T08:55:36.392Z,16.1
2017-12-14T08:56:39.008Z,16.1
2017-12-14T08:57:42.034Z,16.1
2017-12-14T08:58:44.529Z,16.3
2017-12-14T08:59:47.327Z,16.4
2017-12-14T09:00:50.242Z,16.2
2017-12-14T09:01:52.774Z,16.2
2017-12-14T09:02:55.273Z,16
2017-12-14T09:03:58.110Z,16.1
2017-12-14T09:05:00.911Z,16.1
2017-12-14T09:06:04.165Z,16
2017-12-14T09:07:06.679Z,16.1
2017-12-14T09:08:09.226Z,16.2
2017-12-14T09:09:12.374Z,16.3
2017-12-14T09:10:15.171Z,16.4
2017-12-14T09:11:17.859Z,16.4
2017-12-14T09:12:20.687Z,16.2
2017-12-14T09:13:23.262Z,16.3
2017-12-14T09:14:26.046Z,16.2
2017-12-14T09:15:28.693Z,16.2
2017-12-14T09:16:31.414Z,16.3
2017-12-14T09:17:33.962Z,16.2
2017-12-14T09:18:36.484Z,16.4
2017-12-14T09:19:39.108Z,16.5
2017-12-14T09:20:41.908Z,16.2
2017-12-14T09:21:44.647Z,16.1
2017-12-14T09:22:47.618Z,16.1
2017-12-14T09:23:50.313Z,16.1
2017-12-14T09:24:52.902Z,16.1
2017-12-14T09:25:55.495Z,16.1
2017-12-14T09:27:03.679Z,16.1
2017-12-14T09:28:08.324Z,16.2
2017-12-14T09:29:16.720Z,16.3
2017-12-14T09:30:23.573Z,16.3
2017-12-14T09:31:26.398Z,16.2
2017-12-14T09:32:29.764Z,16.2
2017-12-14T09:33:32.643Z,16.3
2017-12-14T09:34:35.490Z,16.2
2017-12-14T09:35:38.285Z,16.2
2017-12-14T09:36:45.658Z,16.3
2017-12-14T09:37:50.275Z,16.5
2017-12-14T09:38:52.788Z,16.7
2017-12-14T09:39:56.122Z,16.8
2017-12-14T09:40:58.751Z,16.9
2017-12-14T09:42:01.671Z,17.1
2017-12-14T09:43:04.283Z,17.5
2017-12-14T09:44:06.819Z,17.7
2017-12-14T09:45:09.623Z,18.2
2017-12-14T09:46:12.284Z,18.1
2017-12-14T09:47:16.856Z,18.4
2017-12-14T09:48:19.719Z,18.5
2017-12-14T09:49:22.485Z,18.4
2017-12-14T09:50:25.268Z,18.4
2017-12-14T09:51:28.410Z,18.3
2017-12-14T09:52:31.431Z,18.3
2017-12-14T09:53:34.660Z,18.5
2017-12-14T09:54:37.494Z,18.4
2017-12-14T09:55:40.208Z,18.9
2017-12-14T09:56:43.028Z,19
2017-12-14T09:57:45.802Z,19.5
2017-12-14T09:58:49.353Z,19.5
2017-12-14T09:59:52.109Z,19.3
2017-12-14T10:00:54.730Z,19.4
2017-12-14T10:01:58.094Z,19.3
2017-12-14T10:03:01.191Z,19.6
2017-12-14T10:04:03.869Z,19.6
2017-12-14T10:05:06.841Z,19.4
2017-12-14T10:06:10.629Z,19.4
2017-12-14T10:07:13.542Z,19.5
2017-12-14T10:08:16.267Z,19.3
2017-12-14T10:09:18.970Z,19.2
2017-12-14T10:10:21.686Z,19.1
2017-12-14T10:11:24.420Z,18.9
2017-12-14T10:12:27.001Z,18.7
2017-12-14T10:13:29.717Z,18.8
2017-12-14T10:14:32.515Z,18.8
2017-12-14T10:15:35.191Z,18.8
2017-12-14T10:16:37.940Z,18.8
2017-12-14T10:17:40.903Z,18.4
2017-12-14T10:18:43.523Z,18.4
2017-12-14T10:19:46.682Z,18.3
2017-12-14T10:20:49.839Z,18.1
2017-12-14T10:21:52.708Z,17.9
2017-12-14T10:22:55.231Z,17.9
2017-12-14T10:23:57.846Z,17.9
2017-12-14T10:25:00.497Z,17.8
2017-12-14T10:26:03.225Z,17.9
2017-12-14T10:27:05.857Z,18
2017-12-14T10:28:10.747Z,18
2017-12-14T10:29:14.487Z,17.7
2017-12-14T10:30:17.312Z,17.7
2017-12-14T10:31:29.952Z,17.6
2017-12-14T10:32:33.168Z,17.5
2017-12-14T10:33:35.958Z,17.5
2017-12-14T10:34:38.649Z,17.5
2017-12-14T10:35:41.428Z,17.4
2017-12-14T10:36:44.354Z,17.4
2017-12-14T10:37:47.152Z,17.4
2017-12-14T10:38:49.768Z,17.3
2017-12-14T10:41:05.684Z,17.2
2017-12-14T10:42:11.061Z,17.3
2017-12-14T10:43:16.322Z,17.3
2017-12-14T10:44:19.753Z,17.4
2017-12-14T10:45:23.143Z,17.3
2017-12-14T10:46:26.108Z,17.2
2017-12-14T10:47:29.073Z,17.3
2017-12-14T10:48:32.208Z,17.2
2017-12-14T10:49:35.078Z,17.1
2017-12-14T10:50:37.645Z,17.1
2017-12-14T10:51:40.862Z,17
2017-12-14T10:52:43.501Z,16.9
2017-12-14T10:53:46.465Z,16.9
2017-12-14T10:54:49.194Z,17
2017-12-14T10:55:52.274Z,17
2017-12-14T10:56:55.308Z,17
2017-12-14T10:57:58.124Z,17
2017-12-14T10:59:00.938Z,17
2017-12-14T11:00:03.910Z,16.9
2017-12-14T11:01:06.936Z,16.8
2017-12-14T11:02:09.854Z,17.1
2017-12-14T11:03:13.101Z,17.3
2017-12-14T11:04:16.399Z,17.2
2017-12-14T11:05:19.323Z,17.2
2017-12-14T11:06:22.697Z,17
2017-12-14T11:07:30.236Z,17.1
2017-12-14T11:08:33.527Z,17
2017-12-14T11:09:36.392Z,17
2017-12-14T11:10:39.274Z,17.1
2017-12-14T11:11:44.320Z,17.1
2017-12-14T11:12:47.209Z,17.1
2017-12-14T11:13:49.964Z,17.1
2017-12-14T11:14:53.956Z,17.3
2017-12-14T11:15:56.982Z,17.2
2017-12-14T11:17:01.816Z,17.1
2017-12-14T11:18:09.929Z,17
2017-12-14T11:19:18.638Z,17
2017-12-14T11:20:21.770Z,17.1
2017-12-14T11:21:24.656Z,17.1
2017-12-14T11:22:28.159Z,17.1
2017-12-14T11:23:31.233Z,17.1
2017-12-14T11:24:33.910Z,17.1
2017-12-14T11:25:41.579Z,17.1
2017-12-14T11:26:48.308Z,17.2
2017-12-14T11:27:54.883Z,17.2
2017-12-14T11:28:59.498Z,17.1
2017-12-14T11:30:04.876Z,17.1
2017-12-14T11:31:08.966Z,17.1
2017-12-14T11:32:16.299Z,17.1
2017-12-14T11:33:19.666Z,17.1
2017-12-14T11:34:22.901Z,17.2
2017-12-14T11:35:25.744Z,17.2
2017-12-14T11:36:28.765Z,17.1
2017-12-14T11:37:32.379Z,17.2
2017-12-14T11:38:35.214Z,17
2017-12-14T11:39:38.315Z,17
2017-12-14T11:40:41.487Z,17.1
2017-12-14T11:41:44.616Z,17.1
2017-12-14T11:42:47.242Z,17.1
2017-12-14T11:43:50.022Z,17.2
2017-12-14T11:44:52.726Z,17.2
2017-12-14T11:45:55.863Z,17.1
2017-12-14T11:46:58.460Z,17.2
2017-12-14T11:48:01.387Z,17
2017-12-14T11:49:04.225Z,17
2017-12-14T11:50:06.980Z,17.1
2017-12-14T11:51:13.831Z,17.1
2017-12-14T11:52:17.039Z,17
2017-12-14T11:53:20.012Z,17
2017-12-14T11:54:23.010Z,16.9
2017-12-14T11:55:25.988Z,17
2017-12-14T11:56:28.699Z,17
2017-12-14T11:57:31.521Z,17.1
2017-12-14T11:58:34.245Z,17.2
2017-12-14T11:59:37.207Z,17.1
2017-12-14T12:00:40.263Z,17.1
2017-12-14T12:01:43.165Z,17
2017-12-14T12:02:46.021Z,17
2017-12-14T12:03:49.290Z,17.1
2017-12-14T12:04:52.437Z,17.5
2017-12-14T12:05:55.356Z,18
2017-12-14T12:06:58.317Z,18.1
2017-12-14T12:08:01.492Z,18.6
2017-12-14T12:09:05.430Z,18.7
2017-12-14T12:10:08.684Z,18.7
2017-12-14T12:11:12.125Z,19
2017-12-14T12:12:14.986Z,19
2017-12-14T12:13:18.092Z,19
2017-12-14T12:14:26.243Z,19.2
2017-12-14T12:15:29.070Z,19.7
2017-12-14T12:16:31.883Z,19.7
2017-12-14T12:17:34.687Z,19.8
2017-12-14T12:18:37.440Z,19.9
2017-12-14T12:19:40.281Z,19.8
2017-12-14T12:20:43.523Z,19.9
2017-12-14T12:21:46.440Z,19.7
2017-12-14T12:22:49.302Z,19.9
2017-12-14T12:23:52.331Z,19.6
2017-12-14T12:24:55.185Z,19.8
2017-12-14T12:25:57.918Z,19.6
2017-12-14T12:27:01.329Z,19.7
2017-12-14T12:28:06.046Z,19.6
2017-12-14T12:29:10.437Z,19.6
2017-12-14T12:30:13.496Z,19.4
2017-12-14T12:31:16.299Z,19.4
2017-12-14T12:32:19.517Z,19.5
2017-12-14T12:33:22.425Z,19.1
2017-12-14T12:34:25.112Z,19.2
2017-12-14T12:35:27.828Z,19
2017-12-14T12:36:30.704Z,19
2017-12-14T12:37:33.474Z,18.9
2017-12-14T12:38:36.445Z,18.8
2017-12-14T12:39:39.320Z,18.8
2017-12-14T12:40:42.162Z,18.7
2017-12-14T12:41:44.889Z,18.7
2017-12-14T12:42:47.527Z,18.7
2017-12-14T12:43:50.347Z,18.6
2017-12-14T12:44:53.183Z,18.5
2017-12-14T12:45:55.971Z,18.6
2017-12-14T12:46:59.792Z,18.5
2017-12-14T12:48:06.613Z,18.3
2017-12-14T12:49:09.278Z,18.3
2017-12-14T12:50:11.982Z,18.4
2017-12-14T12:51:14.977Z,18.2
2017-12-14T12:52:17.751Z,18.3
2017-12-14T12:53:31.762Z,18.1
2017-12-14T12:54:36.349Z,18.1
2017-12-14T12:55:39.497Z,18.1
2017-12-14T12:56:46.700Z,18.3
2017-12-14T12:57:49.836Z,17.9
2017-12-14T12:58:52.739Z,18
2017-12-14T12:59:55.494Z,18
2017-12-14T13:00:58.124Z,18
2017-12-14T13:02:00.715Z,18
2017-12-14T13:03:03.955Z,18.1
2017-12-14T13:04:06.825Z,18.1
2017-12-14T13:05:09.325Z,18.1
2017-12-14T13:06:11.959Z,18.2
2017-12-14T13:07:14.637Z,18.2
2017-12-14T13:08:17.381Z,18
2017-12-14T13:09:20.007Z,17.9
2017-12-14T13:10:22.801Z,17.9
2017-12-14T13:11:25.593Z,17.8
2017-12-14T13:12:28.122Z,17.7
2017-12-14T13:13:30.662Z,17.8
2017-12-14T13:14:33.503Z,17.7
2017-12-14T13:15:37.002Z,17.8
2017-12-14T13:16:40.176Z,17.8
2017-12-14T13:17:43.069Z,17.8
2017-12-14T13:18:45.767Z,17.8
2017-12-14T13:19:48.538Z,17.9
2017-12-14T13:20:51.313Z,17.8
2017-12-14T13:21:54.034Z,17.9
2017-12-14T13:22:56.890Z,17.7
2017-12-14T13:24:00.895Z,17.8
2017-12-14T13:25:03.924Z,17.9
2017-12-14T13:26:06.835Z,17.9
2017-12-14T13:27:14.114Z,17.7
2017-12-14T13:28:17.387Z,17.7
2017-12-14T13:29:20.317Z,17.7
2017-12-14T13:30:22.984Z,17.8
2017-12-14T13:31:29.196Z,17.8
2017-12-14T13:32:32.675Z,17.7
2017-12-14T13:33:35.799Z,17.6
2017-12-14T13:34:38.428Z,17.5
2017-12-14T13:35:41.112Z,17.5
2017-12-14T13:36:43.942Z,17.5
2017-12-14T13:37:46.596Z,17.5
2017-12-14T13:38:49.316Z,17.5
2017-12-14T13:39:52.050Z,17.5
2017-12-14T13:40:55.988Z,17.4
2017-12-14T13:41:59.570Z,17.6
2017-12-14T13:43:02.483Z,17.6
2017-12-14T13:44:05.051Z,17.6
2017-12-14T13:45:07.681Z,17.7
2017-12-14T13:46:10.447Z,17.7
2017-12-14T13:47:13.254Z,17.5
2017-12-14T13:48:15.954Z,17.5
2017-12-14T13:49:18.545Z,17.4
2017-12-14T13:50:21.440Z,17.5
2017-12-14T13:51:24.116Z,17.6
2017-12-14T13:52:26.792Z,17.6
2017-12-14T13:53:29.766Z,17.6
2017-12-14T13:54:33.262Z,17.6
2017-12-14T13:55:36.131Z,17.5
2017-12-14T13:56:38.902Z,17.5
2017-12-14T13:57:41.832Z,17.5
2017-12-14T13:58:44.593Z,17.5
2017-12-14T13:59:49.293Z,17.6
2017-12-14T14:01:06.716Z,17.6
2017-12-14T14:03:30.992Z,17.6
2017-12-14T14:04:46.672Z,17.6
2017-12-14T14:06:14.656Z,17.6
2017-12-14T14:07:33.000Z,17.6
2017-12-14T14:08:48.452Z,17.1
2017-12-14T14:09:55.657Z,16.9
2017-12-14T14:10:59.925Z,16.8
2017-12-14T14:12:02.783Z,16.7
2017-12-14T14:13:05.827Z,16.7